Time;durP1;ratioP1;P1;durP2;ratioP2;P2;SDS_P1;SDS_P2;PMS_P1;PMS_P2;Temp;Humidity;BMP_temperature;BMP_pressure;BME280_temperature;BME280_humidity;BME280_pressure;Samples;Min_cycle;Max_cycle;Signal;HPM_P1;HPM_P2
2021/05/16 00:01:14;;;;;;;4.40;3.80;;;16.90;66.30;;;;;;6168628;23;20023;-78
2021/05/16 00:03:42;;;;;;;4.93;3.60;;;16.80;66.20;;;;;;6143248;23;20025;-77
2021/05/16 00:06:08;;;;;;;5.22;3.60;;;16.80;66.20;;;;;;6168115;23;20013;-78
2021/05/16 00:08:34;;;;;;;4.20;3.42;;;16.80;66.20;;;;;;6168631;23;20084;-78
2021/05/16 00:11:00;;;;;;;4.78;3.80;;;16.80;66.30;;;;;;6169061;23;20118;-79
2021/05/16 00:13:27;;;;;;;4.13;3.42;;;16.80;66.30;;;;;;6168930;23;20014;-77
2021/05/16 00:15:54;;;;;;;3.95;3.55;;;16.80;66.30;;;;;;6168771;23;20072;-78
2021/05/16 00:18:20;;;;;;;4.60;3.60;;;16.80;66.30;;;;;;6168593;23;20010;-78
2021/05/16 00:20:46;;;;;;;4.63;3.85;;;16.80;66.30;;;;;;6168457;23;20011;-77
2021/05/16 00:23:12;;;;;;;3.45;2.97;;;16.80;66.40;;;;;;6168188;23;20376;-77
2021/05/16 00:25:38;;;;;;;3.67;3.17;;;16.80;66.40;;;;;;6169036;23;20014;-78
2021/05/16 00:28:05;;;;;;;3.47;3.08;;;16.80;66.40;;;;;;6169130;23;20132;-77
2021/05/16 00:30:32;;;;;;;3.50;3.20;;;16.80;66.40;;;;;;6132922;23;20351;-78
2021/05/16 00:32:59;;;;;;;3.22;2.92;;;16.80;66.40;;;;;;6158263;23;20017;-79
2021/05/16 00:35:27;;;;;;;3.13;2.83;;;16.80;66.40;;;;;;6168028;23;20474;-78
2021/05/16 00:37:54;;;;;;;4.05;3.10;;;16.80;66.50;;;;;;6168658;23;20010;-78
2021/05/16 00:40:20;;;;;;;3.85;2.83;;;16.80;66.50;;;;;;6168306;23;20020;-77
2021/05/16 00:42:47;;;;;;;3.85;3.40;;;16.80;66.50;;;;;;6164536;23;20088;-78
2021/05/16 00:45:23;;;;;;;3.35;2.67;;;16.80;66.60;;;;;;6168014;23;20041;-78
2021/05/16 00:47:58;;;;;;;2.90;2.58;;;16.80;66.50;;;;;;6142155;23;20017;-78
2021/05/16 00:50:30;;;;;;;3.50;2.60;;;16.80;66.60;;;;;;6167890;23;20088;-78
2021/05/16 00:52:58;;;;;;;3.13;2.30;;;16.80;66.60;;;;;;6168403;23;20009;-78
2021/05/16 00:55:24;;;;;;;2.95;2.60;;;16.80;66.60;;;;;;6166292;23;20005;-79
2021/05/16 00:57:50;;;;;;;4.90;2.47;;;16.80;66.60;;;;;;6168522;23;20041;-76
2021/05/16 01:00:21;;;;;;;3.38;2.58;;;16.80;66.60;;;;;;6158243;23;20272;-77
2021/05/16 01:02:47;;;;;;;4.13;2.67;;;16.80;66.50;;;;;;6167963;23;20010;-77
2021/05/16 01:05:17;;;;;;;2.72;2.33;;;16.80;66.50;;;;;;6166442;23;20064;-79
2021/05/16 01:07:43;;;;;;;2.38;2.17;;;16.80;66.50;;;;;;6168112;23;20013;-78
2021/05/16 01:10:11;;;;;;;2.58;2.33;;;16.80;66.40;;;;;;6167977;23;20033;-79
2021/05/16 01:12:45;;;;;;;2.88;2.20;;;16.80;66.40;;;;;;6168257;23;20071;-78
2021/05/16 01:15:16;;;;;;;2.67;2.30;;;16.80;66.40;;;;;;6167821;23;20015;-78
2021/05/16 01:17:42;;;;;;;3.45;2.72;;;16.80;66.40;;;;;;6167972;23;20023;-77
2021/05/16 01:20:10;;;;;;;2.65;2.05;;;16.80;66.40;;;;;;6142904;23;20016;-77
2021/05/16 01:22:37;;;;;;;3.10;2.40;;;16.80;66.50;;;;;;6168678;23;20398;-78
2021/05/16 01:25:04;;;;;;;2.13;1.90;;;16.80;66.50;;;;;;6167681;23;20037;-79
2021/05/16 01:27:30;;;;;;;2.40;2.20;;;16.80;66.50;;;;;;6167683;23;20311;-78
2021/05/16 01:29:56;;;;;;;2.30;2.10;;;16.80;66.50;;;;;;6168293;23;20017;-78
2021/05/16 01:32:24;;;;;;;2.40;2.10;;;16.80;66.50;;;;;;6142238;23;20392;-78
2021/05/16 01:34:51;;;;;;;2.25;2.05;;;16.80;66.50;;;;;;6167525;23;20093;-77
2021/05/16 01:37:17;;;;;;;3.08;2.45;;;16.80;66.50;;;;;;6167543;23;20345;-77
2021/05/16 01:39:48;;;;;;;2.80;2.42;;;16.80;66.50;;;;;;6158924;23;20017;-77
2021/05/16 01:42:15;;;;;;;2.28;1.75;;;16.70;66.50;;;;;;6168234;23;20009;-78
2021/05/16 01:44:41;;;;;;;2.70;1.98;;;16.80;66.60;;;;;;6167753;23;20437;-78
2021/05/16 01:47:07;;;;;;;3.03;1.90;;;16.80;66.60;;;;;;6142200;23;20056;-78
2021/05/16 01:49:44;;;;;;;2.90;1.95;;;16.80;66.60;;;;;;6168148;23;20053;-77
2021/05/16 01:52:11;;;;;;;2.53;2.10;;;16.70;66.50;;;;;;6167811;23;20024;-78
2021/05/16 01:54:37;;;;;;;2.47;2.20;;;16.70;66.60;;;;;;6132115;23;20009;-79
2021/05/16 01:57:05;;;;;;;2.22;1.90;;;16.70;66.70;;;;;;6161420;23;20399;-78
2021/05/16 01:59:33;;;;;;;2.17;1.98;;;16.70;66.70;;;;;;6168048;23;20013;-77
2021/05/16 02:02:00;;;;;;;2.38;1.80;;;16.70;66.70;;;;;;6168060;23;20014;-78
2021/05/16 02:04:32;;;;;;;3.30;2.08;;;16.70;66.80;;;;;;6157538;23;20334;-79
2021/05/16 02:06:58;;;;;;;2.10;1.88;;;16.70;66.80;;;;;;6167575;23;20013;-78
2021/05/16 02:09:28;;;;;;;2.40;1.90;;;16.70;66.90;;;;;;6167746;23;20009;-77
2021/05/16 02:11:54;;;;;;;2.60;2.20;;;16.70;66.90;;;;;;6168345;23;20020;-78
2021/05/16 02:14:28;;;;;;;2.40;2.15;;;16.70;66.90;;;;;;6167652;23;20014;-77
2021/05/16 02:16:56;;;;;;;2.10;1.90;;;16.70;66.90;;;;;;6167644;23;20036;-78
2021/05/16 02:19:22;;;;;;;2.38;2.10;;;16.60;67.00;;;;;;6167397;23;20098;-77
2021/05/16 02:21:49;;;;;;;2.15;1.95;;;16.60;67.00;;;;;;6168232;23;20021;-77
2021/05/16 02:24:18;;;;;;;2.30;1.92;;;16.60;67.00;;;;;;6142018;23;20021;-77
2021/05/16 02:26:45;;;;;;;2.75;2.38;;;16.60;67.00;;;;;;6157728;23;20518;-78
2021/05/16 02:29:11;;;;;;;2.22;2.03;;;16.60;67.10;;;;;;6158214;23;20027;-78
2021/05/16 02:31:38;;;;;;;3.83;2.20;;;16.60;67.10;;;;;;6167310;23;20018;-78
2021/05/16 02:34:05;;;;;;;2.22;2.03;;;16.60;67.10;;;;;;6167248;23;20019;-78
2021/05/16 02:36:31;;;;;;;2.55;2.00;;;16.60;67.10;;;;;;6141549;23;20009;-79
2021/05/16 02:38:59;;;;;;;2.83;2.60;;;16.60;67.10;;;;;;6167783;23;20005;-79
2021/05/16 02:41:24;;;;;;;2.60;2.40;;;16.60;67.10;;;;;;6167591;23;20091;-78
2021/05/16 02:43:51;;;;;;;2.88;2.58;;;16.60;67.10;;;;;;6167610;23;20454;-79
2021/05/16 02:46:16;;;;;;;2.67;2.35;;;16.60;67.20;;;;;;6141823;23;20025;-77
2021/05/16 02:48:42;;;;;;;3.05;2.80;;;16.60;67.20;;;;;;6167174;23;20263;-78
2021/05/16 02:51:08;;;;;;;2.72;2.42;;;16.60;67.20;;;;;;6167922;23;20009;-79
2021/05/16 02:53:34;;;;;;;3.30;3.00;;;16.60;67.20;;;;;;6167792;23;20016;-78
2021/05/16 02:56:00;;;;;;;3.60;3.13;;;16.60;67.30;;;;;;6165825;23;20040;-77
2021/05/16 02:58:26;;;;;;;3.08;2.75;;;16.60;67.30;;;;;;6169246;23;20018;-77
2021/05/16 03:00:53;;;;;;;3.97;3.38;;;16.60;67.30;;;;;;6169313;23;20021;-77
2021/05/16 03:03:18;;;;;;;3.78;2.75;;;16.50;67.30;;;;;;6169183;23;20017;-78
2021/05/16 03:05:45;;;;;;;3.40;3.10;;;16.60;67.40;;;;;;6168756;23;20013;-79
2021/05/16 03:08:10;;;;;;;2.92;2.55;;;16.60;67.30;;;;;;6143180;23;20009;-78
2021/05/16 03:10:37;;;;;;;4.35;3.13;;;16.50;67.30;;;;;;6168871;23;20010;-79
2021/05/16 03:13:03;;;;;;;3.47;3.00;;;16.60;67.30;;;;;;6169143;23;20014;-78
2021/05/16 03:15:29;;;;;;;3.60;3.30;;;16.50;67.30;;;;;;6160228;23;20025;-78
2021/05/16 03:17:55;;;;;;;3.67;3.38;;;16.60;67.40;;;;;;6169466;23;20015;-79
2021/05/16 03:20:22;;;;;;;3.88;3.40;;;16.50;67.40;;;;;;6168924;23;20335;-78
2021/05/16 03:22:48;;;;;;;3.60;3.30;;;16.50;67.30;;;;;;6169066;23;20021;-79
2021/05/16 03:25:14;;;;;;;3.47;3.17;;;16.50;67.40;;;;;;6168936;23;20395;-77
2021/05/16 03:27:40;;;;;;;3.50;3.20;;;16.50;67.40;;;;;;6159141;23;20351;-78
2021/05/16 03:30:10;;;;;;;3.80;3.50;;;16.50;67.40;;;;;;6169021;23;20092;-77
2021/05/16 03:32:36;;;;;;;4.88;3.67;;;16.50;67.40;;;;;;6168922;23;20021;-79
2021/05/16 03:35:04;;;;;;;4.30;3.90;;;16.50;67.40;;;;;;6168934;23;20032;-77
2021/05/16 03:37:30;;;;;;;3.83;3.28;;;16.50;67.30;;;;;;6168612;23;20017;-77
2021/05/16 03:39:56;;;;;;;4.30;3.75;;;16.50;67.40;;;;;;6168243;23;20084;-77
2021/05/16 03:42:22;;;;;;;3.75;3.45;;;16.50;67.40;;;;;;6168851;23;20469;-77
2021/05/16 03:44:48;;;;;;;3.63;3.33;;;16.50;67.40;;;;;;6168520;23;20009;-79
2021/05/16 03:47:17;;;;;;;4.07;3.60;;;16.50;67.40;;;;;;6143249;23;20346;-78
2021/05/16 03:49:42;;;;;;;4.68;4.25;;;16.60;67.50;;;;;;6169064;23;20018;-77
2021/05/16 03:52:08;;;;;;;4.18;3.78;;;16.50;67.40;;;;;;6168863;23;20018;-79
2021/05/16 03:54:34;;;;;;;4.93;3.65;;;16.50;67.40;;;;;;6168742;23;20092;-79
2021/05/16 03:57:00;;;;;;;4.15;3.75;;;16.50;67.50;;;;;;6161719;23;20363;-77
2021/05/16 03:59:26;;;;;;;5.68;3.88;;;16.50;67.50;;;;;;6133188;23;20017;-77
2021/05/16 04:01:52;;;;;;;4.43;4.03;;;16.40;67.40;;;;;;6168565;23;20449;-79
2021/05/16 04:04:17;;;;;;;4.53;4.13;;;16.50;67.50;;;;;;6159340;23;20025;-76
2021/05/16 04:06:43;;;;;;;4.53;4.13;;;16.40;67.50;;;;;;6142431;23;20018;-77
2021/05/16 04:09:09;;;;;;;5.10;4.25;;;16.40;67.50;;;;;;6168892;23;20307;-78
2021/05/16 04:11:35;;;;;;;4.63;3.88;;;16.40;67.50;;;;;;6168889;23;20079;-77
2021/05/16 04:14:01;;;;;;;5.15;4.65;;;16.40;67.50;;;;;;6168171;23;20017;-79
2021/05/16 04:16:27;;;;;;;5.40;4.90;;;16.40;67.50;;;;;;6158406;23;20017;-77
2021/05/16 04:18:54;;;;;;;5.20;4.70;;;16.40;67.50;;;;;;6159149;23;20033;-78
2021/05/16 04:21:19;;;;;;;5.25;4.75;;;16.40;67.60;;;;;;6168025;23;20028;-79
2021/05/16 04:23:45;;;;;;;5.40;4.90;;;16.40;67.60;;;;;;6142860;23;20013;-78
2021/05/16 04:26:11;;;;;;;5.90;5.13;;;16.40;67.70;;;;;;6142758;23;20017;-79
2021/05/16 04:28:37;;;;;;;5.30;4.45;;;16.40;67.60;;;;;;6158780;23;20009;-78
2021/05/16 04:31:02;;;;;;;5.50;4.93;;;16.40;67.60;;;;;;6132297;23;20072;-79
2021/05/16 04:33:28;;;;;;;5.40;4.90;;;16.40;67.60;;;;;;6167975;23;20101;-78
2021/05/16 04:35:56;;;;;;;5.20;4.60;;;16.40;67.60;;;;;;6142353;23;20013;-77
2021/05/16 04:38:21;;;;;;;6.32;5.68;;;16.40;67.60;;;;;;6132877;23;20037;-78
2021/05/16 04:40:47;;;;;;;5.30;4.80;;;16.40;67.70;;;;;;6142741;23;20013;-77
2021/05/16 04:43:13;;;;;;;6.00;5.43;;;16.40;67.70;;;;;;6166847;23;20013;-77
2021/05/16 04:45:40;;;;;;;6.43;5.72;;;16.40;67.70;;;;;;6167814;23;20377;-78
2021/05/16 04:48:07;;;;;;;6.93;5.20;;;16.40;67.70;;;;;;6168431;23;20356;-78
2021/05/16 04:50:33;;;;;;;6.20;5.60;;;16.40;67.70;;;;;;6168724;23;20031;-77
2021/05/16 04:52:59;;;;;;;6.88;5.97;;;16.40;67.70;;;;;;6158367;23;20013;-77
2021/05/16 04:55:26;;;;;;;6.97;5.80;;;16.40;67.80;;;;;;6167077;23;20024;-79
2021/05/16 04:57:52;;;;;;;6.63;5.82;;;16.40;67.80;;;;;;6158434;23;20044;-77
2021/05/16 05:00:18;;;;;;;6.07;5.40;;;16.40;67.80;;;;;;6167824;23;20025;-78
2021/05/16 05:02:46;;;;;;;7.43;6.18;;;16.40;67.80;;;;;;6167832;23;20029;-77
2021/05/16 05:05:13;;;;;;;6.80;6.10;;;16.40;67.80;;;;;;6167691;23;20287;-78
2021/05/16 05:07:39;;;;;;;6.70;6.00;;;16.40;67.80;;;;;;6168384;23;20013;-78
2021/05/16 05:10:08;;;;;;;8.85;5.78;;;16.40;67.80;;;;;;6168326;23;20068;-78
2021/05/16 05:12:34;;;;;;;15.00;6.15;;;16.40;67.90;;;;;;6142028;23;20014;-78
2021/05/16 05:15:00;;;;;;;14.63;6.20;;;16.40;67.90;;;;;;6142392;23;20288;-78
2021/05/16 05:17:26;;;;;;;10.18;5.65;;;16.40;68.00;;;;;;6167620;23;20017;-78
2021/05/16 05:19:52;;;;;;;11.93;5.28;;;16.40;67.70;;;;;;6158589;23;20009;-77
2021/05/16 05:22:18;;;;;;;8.25;4.70;;;16.50;68.20;;;;;;6166507;23;20009;-78
2021/05/16 05:24:44;;;;;;;13.80;5.55;;;16.60;68.30;;;;;;6141932;23;20005;-79
2021/05/16 05:27:10;;;;;;;12.00;3.95;;;16.70;68.10;;;;;;6167768;23;20009;-78
2021/05/16 05:29:36;;;;;;;12.45;3.88;;;16.90;68.00;;;;;;6167660;23;20111;-78
2021/05/16 05:32:13;;;;;;;8.50;3.65;;;17.00;67.80;;;;;;6168110;23;20045;-78
2021/05/16 05:34:39;;;;;;;14.98;3.47;;;17.10;67.70;;;;;;6158539;23;20412;-79
2021/05/16 05:37:07;;;;;;;16.08;4.18;;;17.20;67.60;;;;;;6158696;23;20010;-79
2021/05/16 05:39:33;;;;;;;14.70;3.22;;;17.20;67.60;;;;;;6142138;23;20010;-79
2021/05/16 05:41:59;;;;;;;11.38;3.72;;;17.20;67.60;;;;;;6167524;23;20422;-75
2021/05/16 05:44:30;;;;;;;8.48;3.10;;;17.30;67.60;;;;;;6133496;23;20013;-75
2021/05/16 05:46:55;;;;;;;13.63;3.22;;;17.30;67.60;;;;;;6167582;23;20099;-77
2021/05/16 05:49:23;;;;;;;12.07;3.78;;;17.30;67.60;;;;;;6167914;23;20017;-78
2021/05/16 05:51:49;;;;;;;13.52;3.47;;;17.40;67.60;;;;;;6167867;23;20303;-78
2021/05/16 05:54:15;;;;;;;9.75;3.15;;;17.40;67.60;;;;;;6167767;23;20013;-76
2021/05/16 05:56:41;;;;;;;6.90;2.88;;;17.40;67.70;;;;;;6162051;23;20064;-76
2021/05/16 05:59:08;;;;;;;10.77;3.08;;;17.40;67.80;;;;;;6158147;23;20017;-76
2021/05/16 06:01:34;;;;;;;8.73;2.58;;;17.40;67.90;;;;;;6167847;23;20020;-79
2021/05/16 06:04:00;;;;;;;10.35;2.60;;;17.50;68.00;;;;;;6168434;23;20020;-73
2021/05/16 06:06:26;;;;;;;10.05;2.92;;;17.60;67.90;;;;;;6167659;23;20403;-77
2021/05/16 06:08:52;;;;;;;7.85;2.55;;;17.60;67.90;;;;;;6167672;23;20020;-76
2021/05/16 06:11:18;;;;;;;9.07;2.65;;;17.70;67.80;;;;;;6168705;23;20084;-79
2021/05/16 06:13:44;;;;;;;10.05;2.08;;;17.70;67.70;;;;;;6167752;23;20009;-78
2021/05/16 06:16:09;;;;;;;10.15;2.53;;;17.70;67.60;;;;;;6157473;23;20478;-77
2021/05/16 06:18:36;;;;;;;8.93;2.70;;;17.70;67.70;;;;;;6156350;23;20012;-78
2021/05/16 06:21:02;;;;;;;8.45;3.10;;;17.70;67.80;;;;;;6167274;23;20013;-76
2021/05/16 06:23:35;;;;;;;11.32;3.47;;;17.70;67.80;;;;;;6167621;23;20060;-78
2021/05/16 06:26:01;;;;;;;8.65;3.20;;;17.60;67.90;;;;;;6167815;23;20084;-80
2021/05/16 06:28:27;;;;;;;6.68;2.80;;;17.60;67.90;;;;;;6167755;23;20037;-77
2021/05/16 06:30:53;;;;;;;11.80;2.92;;;17.60;68.00;;;;;;6169665;23;20064;-78
2021/05/16 06:33:19;;;;;;;11.00;2.65;;;17.60;68.00;;;;;;6143740;23;20052;-78
2021/05/16 06:35:45;;;;;;;6.93;2.17;;;17.70;68.10;;;;;;6169188;23;20029;-78
2021/05/16 06:38:11;;;;;;;8.35;2.63;;;17.70;68.00;;;;;;6169756;23;20010;-76
2021/05/16 06:40:37;;;;;;;9.18;3.05;;;17.80;67.80;;;;;;6169328;23;20037;-78
2021/05/16 06:43:05;;;;;;;11.98;2.50;;;17.80;67.60;;;;;;6169094;23;20017;-79
2021/05/16 06:45:32;;;;;;;12.70;3.08;;;17.90;67.60;;;;;;6144290;23;20010;-78
2021/05/16 06:47:58;;;;;;;8.65;2.65;;;17.90;67.50;;;;;;6170055;23;20029;-79
2021/05/16 06:50:25;;;;;;;11.02;3.28;;;17.90;67.40;;;;;;6159150;23;20493;-79
2021/05/16 06:52:51;;;;;;;9.63;2.60;;;18.00;67.20;;;;;;6169451;23;20033;-78
2021/05/16 06:55:17;;;;;;;12.68;2.92;;;18.10;67.30;;;;;;6169346;23;20006;-78
2021/05/16 06:57:43;;;;;;;12.15;2.50;;;18.10;67.10;;;;;;6160154;23;20024;-76
2021/05/16 07:00:09;;;;;;;9.43;2.85;;;18.10;67.00;;;;;;6169991;23;20324;-77
2021/05/16 07:02:35;;;;;;;10.77;2.50;;;18.10;66.90;;;;;;6143928;23;20013;-78
2021/05/16 07:05:01;;;;;;;9.15;2.00;;;18.10;66.90;;;;;;6169052;23;20010;-78
2021/05/16 07:07:27;;;;;;;9.52;2.55;;;18.20;67.00;;;;;;6169084;23;20017;-79
2021/05/16 07:09:53;;;;;;;10.50;2.67;;;18.20;67.00;;;;;;6159545;23;20395;-80
2021/05/16 07:12:18;;;;;;;17.08;2.83;;;18.20;66.90;;;;;;6169257;23;20185;-80
2021/05/16 07:14:44;;;;;;;11.68;2.17;;;18.20;66.90;;;;;;6169226;23;20013;-76
2021/05/16 07:17:10;;;;;;;9.88;2.30;;;18.20;66.90;;;;;;6158341;23;20072;-79
2021/05/16 07:19:36;;;;;;;6.15;2.22;;;18.20;66.90;;;;;;6168698;23;20013;-80
2021/05/16 07:22:02;;;;;;;6.95;1.98;;;18.20;66.90;;;;;;6143663;23;20017;-76
2021/05/16 07:24:28;;;;;;;4.55;1.98;;;18.20;66.90;;;;;;6169409;23;20368;-77
2021/05/16 07:26:54;;;;;;;6.18;1.83;;;18.20;67.50;;;;;;6168591;23;20009;-79
2021/05/16 07:29:21;;;;;;;5.80;2.45;;;18.20;67.00;;;;;;6169539;23;20072;-78
2021/05/16 07:31:47;;;;;;;5.00;1.80;;;18.20;67.00;;;;;;6169452;23;20024;-79
2021/05/16 07:34:14;;;;;;;6.95;1.92;;;18.20;67.50;;;;;;6168853;23;20009;-78
2021/05/16 07:36:40;;;;;;;13.93;3.05;;;18.20;66.90;;;;;;6159218;23;20062;-78
2021/05/16 07:39:15;;;;;;;10.18;1.95;;;18.20;67.00;;;;;;6168700;23;20013;-78
2021/05/16 07:41:41;;;;;;;7.90;2.08;;;18.20;67.00;;;;;;6159078;23;20020;-79
2021/05/16 07:44:08;;;;;;;10.80;2.00;;;18.20;67.00;;;;;;6143540;23;20075;-79
2021/05/16 07:46:35;;;;;;;13.48;3.35;;;18.20;66.90;;;;;;6168882;23;20044;-76
2021/05/16 07:49:01;;;;;;;12.07;3.15;;;17.90;65.30;;;;;;6168653;23;20364;-78
2021/05/16 07:51:26;;;;;;;11.10;3.03;;;17.60;65.90;;;;;;6143126;23;20017;-80
2021/05/16 07:53:55;;;;;;;17.67;3.20;;;17.50;66.60;;;;;;6169336;23;20013;-78
2021/05/16 07:56:21;;;;;;;15.32;2.58;;;17.40;67.20;;;;;;6165167;23;20076;-79
2021/05/16 07:58:47;;;;;;;13.52;3.03;;;17.40;67.50;;;;;;6168637;23;20016;-77
2021/05/16 08:01:16;;;;;;;14.77;2.75;;;17.30;67.50;;;;;;6158476;23;20017;-80
2021/05/16 08:03:46;;;;;;;16.92;3.30;;;17.30;67.90;;;;;;6168760;23;20014;-81
2021/05/16 08:06:15;;;;;;;7.57;2.50;;;17.20;68.00;;;;;;6167072;23;20075;-80
2021/05/16 08:08:41;;;;;;;18.63;2.90;;;17.20;68.70;;;;;;6167221;23;20014;-80
2021/05/16 08:11:07;;;;;;;11.15;2.60;;;17.20;68.80;;;;;;6168201;23;20085;-78
2021/05/16 08:13:36;;;;;;;15.73;2.95;;;17.20;68.70;;;;;;6167722;23;20290;-79
2021/05/16 08:16:02;;;;;;;9.02;3.17;;;17.20;68.50;;;;;;6167233;23;20013;-82
2021/05/16 08:18:29;;;;;;;8.43;3.10;;;17.20;68.50;;;;;;6158383;23;20101;-75
2021/05/16 08:20:55;;;;;;;11.82;3.45;;;17.20;68.80;;;;;;6168200;23;20010;-78
2021/05/16 08:23:27;;;;;;;11.05;3.25;;;17.10;69.10;;;;;;6143469;23;20477;-78
2021/05/16 08:25:53;;;;;;;8.52;3.08;;;17.10;68.70;;;;;;6142343;23;20009;-75
2021/05/16 08:28:19;;;;;;;8.98;2.72;;;17.10;68.80;;;;;;6168065;23;20092;-75
2021/05/16 08:30:48;;;;;;;18.38;3.20;;;17.10;69.70;;;;;;6158582;23;20017;-81
2021/05/16 08:33:14;;;;;;;10.90;2.83;;;17.30;70.40;;;;;;6108052;23;20415;-79
2021/05/16 08:35:40;;;;;;;9.75;3.53;;;17.40;70.20;;;;;;6167366;23;20186;-81
2021/05/16 08:38:06;;;;;;;8.18;2.53;;;17.50;70.70;;;;;;6157721;23;20064;-80
2021/05/16 08:40:32;;;;;;;10.13;2.63;;;17.50;70.50;;;;;;6158964;23;20080;-80
2021/05/16 08:43:01;;;;;;;9.85;2.80;;;17.60;70.90;;;;;;6168363;23;20335;-77
2021/05/16 08:45:27;;;;;;;11.40;2.33;;;17.60;70.80;;;;;;6142796;23;20005;-78
2021/05/16 08:47:53;;;;;;;8.23;2.05;;;17.70;70.90;;;;;;6168123;23;20024;-78
2021/05/16 08:50:20;;;;;;;8.57;2.50;;;17.70;70.80;;;;;;6168262;23;20009;-78
2021/05/16 08:52:46;;;;;;;10.48;2.80;;;17.80;70.90;;;;;;6168125;23;20023;-78
2021/05/16 08:55:14;;;;;;;11.13;2.47;;;17.80;71.10;;;;;;6168217;23;20036;-80
2021/05/16 08:57:40;;;;;;;7.43;2.60;;;17.80;71.20;;;;;;6159274;23;20037;-80
2021/05/16 09:00:26;;;;;;;11.32;2.78;;;17.80;71.30;;;;;;6132464;23;20013;-81
2021/05/16 09:03:05;;;;;;;12.02;3.13;;;17.80;71.40;;;;;;6142117;23;20006;-79
2021/05/16 09:05:37;;;;;;;11.75;3.00;;;17.80;71.70;;;;;;6168359;23;20063;-78
2021/05/16 09:08:07;;;;;;;13.82;2.58;;;17.80;71.80;;;;;;6168101;23;20013;-79
2021/05/16 09:10:34;;;;;;;8.70;2.72;;;17.80;71.80;;;;;;6167924;23;20013;-79
2021/05/16 09:13:16;;;;;;;9.10;3.17;;;17.80;71.80;;;;;;6167959;23;20431;-81
2021/05/16 09:15:43;;;;;;;9.35;2.80;;;17.80;71.90;;;;;;6167950;23;20295;-76
2021/05/16 09:18:08;;;;;;;12.00;3.17;;;17.80;72.20;;;;;;6167772;23;20011;-75
2021/05/16 09:20:34;;;;;;;17.85;3.38;;;17.80;72.40;;;;;;6167943;23;20014;-76
2021/05/16 09:23:00;;;;;;;9.80;2.40;;;17.80;72.00;;;;;;6167838;23;20295;-79
2021/05/16 09:25:31;;;;;;;8.20;2.38;;;17.80;70.20;;;;;;6157777;23;20009;-80
2021/05/16 09:28:12;;;;;;;7.18;2.28;;;17.70;69.20;;;;;;6167837;23;20048;-77
2021/05/16 09:30:41;;;;;;;7.18;2.03;;;17.70;69.10;;;;;;6167158;23;20014;-77
2021/05/16 09:33:14;;;;;;;8.10;2.20;;;17.70;69.80;;;;;;6167499;23;20407;-79
2021/05/16 09:35:47;;;;;;;6.47;2.03;;;17.60;69.90;;;;;;6143515;23;20040;-80
2021/05/16 09:38:21;;;;;;;10.63;2.75;;;17.60;69.90;;;;;;6142495;23;20312;-75
2021/05/16 09:40:55;;;;;;;7.35;2.47;;;17.70;69.90;;;;;;6132425;23;20396;-77
2021/05/16 09:43:44;;;;;;;10.13;2.55;;;17.70;70.00;;;;;;6167182;23;20006;-80
2021/05/16 09:46:12;;;;;;;6.00;1.85;;;17.60;68.40;;;;;;6157978;23;20303;-77
2021/05/16 09:48:44;;;;;;;7.22;2.00;;;17.70;68.80;;;;;;6167453;23;20010;-81
2021/05/16 09:51:16;;;;;;;7.80;1.85;;;17.60;68.50;;;;;;6157744;23;20009;-79
2021/05/16 09:54:03;;;;;;;9.70;1.85;;;17.60;69.20;;;;;;6157979;23;20295;-78
2021/05/16 09:56:31;;;;;;;8.02;1.52;;;17.60;68.80;;;;;;6157628;23;20017;-78
2021/05/16 09:58:58;;;;;;;8.35;1.75;;;17.60;68.90;;;;;;6167406;23;20017;-79
2021/05/16 10:01:26;;;;;;;5.10;1.63;;;17.50;68.90;;;;;;6157855;23;20343;-79
2021/05/16 10:03:54;;;;;;;7.82;1.50;;;17.50;68.90;;;;;;6167895;23;20036;-76
2021/05/16 10:06:21;;;;;;;6.20;1.55;;;17.50;69.10;;;;;;6169543;23;20068;-75
2021/05/16 10:08:48;;;;;;;7.85;1.85;;;17.60;69.40;;;;;;6169330;23;20283;-78
2021/05/16 10:11:25;;;;;;;6.80;1.65;;;17.60;69.20;;;;;;6169579;23;20009;-77
2021/05/16 10:14:12;;;;;;;6.35;1.70;;;17.50;68.60;;;;;;6170393;23;20010;-77
2021/05/16 10:16:41;;;;;;;11.05;1.77;;;17.60;69.60;;;;;;6170004;23;20009;-78
2021/05/16 10:19:12;;;;;;;7.57;1.50;;;17.60;69.80;;;;;;6169548;23;20072;-78
2021/05/16 10:21:40;;;;;;;7.93;1.50;;;17.70;70.00;;;;;;6169606;23;20009;-76
2021/05/16 10:24:17;;;;;;;8.50;1.30;;;17.70;69.90;;;;;;6169513;23;20014;-76
2021/05/16 10:26:47;;;;;;;6.35;1.75;;;17.70;70.10;;;;;;6170111;23;20048;-78
2021/05/16 10:29:15;;;;;;;7.63;1.20;;;17.70;70.00;;;;;;6169590;23;20009;-77
2021/05/16 10:31:44;;;;;;;10.43;1.42;;;17.70;70.10;;;;;;6169549;23;20091;-76
2021/05/16 10:34:25;;;;;;;6.85;0.98;;;17.70;70.20;;;;;;6169764;23;20021;-77
2021/05/16 10:36:52;;;;;;;11.05;1.45;;;17.70;70.40;;;;;;6169635;23;20093;-76
2021/05/16 10:39:42;;;;;;;8.65;1.75;;;17.70;70.60;;;;;;6169314;23;20013;-81
2021/05/16 10:42:15;;;;;;;8.98;1.38;;;17.80;70.50;;;;;;6109691;23;20080;-77
2021/05/16 10:45:06;;;;;;;4.85;1.55;;;17.80;70.10;;;;;;6169036;23;20005;-78
2021/05/16 10:47:41;;;;;;;7.53;1.90;;;17.80;69.80;;;;;;6169347;23;20088;-78
2021/05/16 10:50:27;;;;;;;7.45;2.17;;;17.80;69.50;;;;;;6169048;23;20335;-73
2021/05/16 10:53:02;;;;;;;9.50;1.73;;;17.80;69.30;;;;;;6113360;23;20092;-76
2021/05/16 10:55:50;;;;;;;7.95;1.98;;;17.80;69.50;;;;;;6159628;23;20021;-75
2021/05/16 10:58:37;;;;;;;10.30;2.67;;;17.80;69.10;;;;;;6101663;23;20462;-78
2021/05/16 11:01:11;;;;;;;12.98;6.18;;;17.80;69.70;;;;;;6168361;23;20303;-78
2021/05/16 11:03:49;;;;;;;12.65;4.65;;;17.80;70.70;;;;;;6169146;23;20144;-76
2021/05/16 11:06:18;;;;;;;15.85;2.90;;;17.80;71.00;;;;;;6168764;23;20017;-73
2021/05/16 11:09:35;;;;;;;10.18;2.50;;;17.90;70.50;;;;;;6169092;23;20075;-79
2021/05/16 11:12:04;;;;;;;6.18;2.05;;;17.90;70.40;;;;;;6109828;23;20009;-79
2021/05/16 11:14:35;;;;;;;8.15;1.95;;;17.90;70.00;;;;;;6169188;23;20010;-76
2021/05/16 11:17:04;;;;;;;7.18;1.38;;;17.90;69.40;;;;;;6168652;23;20390;-78
2021/05/16 11:19:33;;;;;;;4.68;1.50;;;17.90;69.00;;;;;;6143148;23;20020;-75
2021/05/16 11:22:10;;;;;;;7.63;1.92;;;17.90;68.90;;;;;;6168794;23;20005;-74
2021/05/16 11:24:45;;;;;;;4.68;1.40;;;17.90;68.80;;;;;;6169615;23;20009;-73
2021/05/16 11:27:20;;;;;;;7.88;1.58;;;17.90;69.00;;;;;;6159624;23;20045;-74
2021/05/16 11:29:51;;;;;;;7.57;1.35;;;17.90;69.10;;;;;;6143055;23;20064;-73
2021/05/16 11:32:27;;;;;;;4.90;1.23;;;17.90;68.70;;;;;;6168512;23;20013;-74
2021/05/16 11:35:16;;;;;;;2.05;0.77;;;17.90;68.80;;;;;;6168936;23;20029;-74
2021/05/16 11:37:45;;;;;;;8.75;1.25;;;17.90;68.70;;;;;;6158696;23;20054;-76
2021/05/16 11:40:28;;;;;;;5.63;1.40;;;17.80;68.10;;;;;;6169016;23;20013;-79
2021/05/16 11:43:09;;;;;;;4.07;1.00;;;17.80;67.70;;;;;;6169019;23;20009;-78
2021/05/16 11:45:42;;;;;;;6.05;1.30;;;17.90;68.20;;;;;;6168592;23;20009;-78
2021/05/16 11:48:30;;;;;;;7.18;1.40;;;17.80;68.40;;;;;;6168224;23;20014;-74
2021/05/16 11:51:10;;;;;;;6.60;1.00;;;17.80;68.40;;;;;;6143483;23;20009;-74
2021/05/16 11:53:39;;;;;;;5.80;1.10;;;17.80;68.70;;;;;;6168397;23;20009;-77
2021/05/16 11:56:09;;;;;;;10.27;1.15;;;17.80;68.60;;;;;;6166328;23;20013;-80
2021/05/16 11:58:39;;;;;;;11.68;1.20;;;17.80;68.60;;;;;;6169221;23;20017;-77
2021/05/16 12:01:12;;;;;;;8.52;1.60;;;17.80;69.00;;;;;;6168489;23;20295;-81
2021/05/16 12:04:00;;;;;;;8.90;1.30;;;17.90;70.20;;;;;;6158667;23;20024;-79
2021/05/16 12:06:41;;;;;;;6.78;0.95;;;17.90;71.10;;;;;;6168788;23;20017;-78
2021/05/16 12:09:20;;;;;;;;;;;;;;;;;;;;;
2021/05/16 12:11:48;;;;;;;8.55;1.33;;;17.90;71.70;;;;;;6168871;23;20002;-76
2021/05/16 12:14:18;;;;;;;5.75;1.17;;;17.90;72.20;;;;;;6168081;23;20013;-78
2021/05/16 12:16:52;;;;;;;8.05;1.45;;;17.80;69.10;;;;;;6168248;23;20355;-79
2021/05/16 12:19:29;;;;;;;10.23;1.20;;;17.80;69.30;;;;;;6168573;23;20353;-77
2021/05/16 12:22:03;;;;;;;8.13;0.98;;;17.80;71.10;;;;;;6133558;23;20367;-78
2021/05/16 12:24:37;;;;;;;11.20;1.60;;;17.80;71.60;;;;;;6168220;23;20009;-78
2021/05/16 12:27:09;;;;;;;7.28;1.15;;;17.90;71.80;;;;;;6167657;23;20013;-78
2021/05/16 12:29:42;;;;;;;7.05;1.02;;;17.90;71.50;;;;;;6168214;23;20029;-77
2021/05/16 12:32:12;;;;;;;8.07;1.27;;;17.80;71.60;;;;;;6167796;23;20009;-78
2021/05/16 12:34:38;;;;;;;13.32;1.23;;;17.90;71.50;;;;;;6168148;23;20288;-76
2021/05/16 12:37:18;;;;;;;9.45;1.23;;;17.80;71.30;;;;;;6168297;23;20039;-76
2021/05/16 12:39:48;;;;;;;8.18;1.10;;;17.90;71.40;;;;;;6168372;23;20013;-76
2021/05/16 12:42:35;;;;;;;10.43;1.40;;;17.90;71.40;;;;;;6167005;23;20009;-79
2021/05/16 12:45:23;;;;;;;5.75;1.40;;;17.90;70.90;;;;;;6168415;23;20268;-76
2021/05/16 12:48:05;;;;;;;3.17;1.00;;;17.90;70.50;;;;;;6168972;23;20014;-76
2021/05/16 12:50:35;;;;;;;6.60;1.20;;;17.90;70.00;;;;;;6168262;23;20013;-78
2021/05/16 12:53:38;;;;;;;3.72;0.88;;;17.90;69.60;;;;;;6168990;23;20414;-76
2021/05/16 12:56:20;;;;;;;4.10;1.10;;;17.80;69.00;;;;;;6166649;23;20014;-77